createdAt,value
2022-08-30T00:02:28.376Z,12.79
2022-08-30T00:04:56.525Z,12.74
2022-08-30T00:07:25.503Z,13.01
2022-08-30T00:09:53.667Z,12.75
2022-08-30T00:12:21.676Z,13.02
2022-08-30T00:14:50.321Z,13.05
2022-08-30T00:17:19.545Z,12.97
2022-08-30T00:19:47.700Z,12.98
2022-08-30T00:22:16.080Z,12.69
2022-08-30T00:24:44.373Z,12.90
2022-08-30T00:27:12.480Z,12.21
2022-08-30T00:29:41.345Z,12.84
2022-08-30T00:32:09.570Z,12.84
2022-08-30T00:34:37.568Z,12.83
2022-08-30T00:37:05.859Z,12.81
2022-08-30T00:39:33.856Z,12.77
2022-08-30T00:42:02.297Z,12.70
2022-08-30T00:44:30.509Z,12.74
2022-08-30T00:46:58.702Z,12.72
2022-08-30T00:49:26.851Z,12.60
2022-08-30T00:51:56.264Z,12.67
2022-08-30T00:54:26.287Z,12.19
2022-08-30T00:56:54.888Z,12.54
2022-08-30T00:59:25.720Z,12.21
2022-08-30T01:01:54.361Z,12.42
2022-08-30T01:04:27.191Z,12.36
2022-08-30T01:06:55.297Z,12.01
2022-08-30T01:09:24.167Z,12.24
2022-08-30T01:11:52.766Z,12.04
2022-08-30T01:14:22.280Z,11.93
2022-08-30T01:16:58.106Z,12.17
2022-08-30T01:19:41.200Z,12.18
2022-08-30T01:23:03.200Z,12.08
2022-08-30T01:25:31.666Z,11.98
2022-08-30T01:28:10.164Z,11.92
2022-08-30T01:30:43.188Z,11.60
2022-08-30T01:33:12.454Z,11.71
2022-08-30T01:36:01.254Z,11.75
2022-08-30T01:38:41.051Z,11.48
2022-08-30T01:41:20.532Z,11.90
2022-08-30T01:43:51.336Z,11.86
2022-08-30T01:46:23.711Z,11.84
2022-08-30T01:48:54.567Z,11.76
2022-08-30T01:51:27.749Z,11.70
2022-08-30T01:53:56.400Z,11.73
2022-08-30T01:56:27.191Z,11.48
2022-08-30T01:59:00.440Z,11.81
2022-08-30T02:01:37.311Z,11.88
2022-08-30T02:04:07.510Z,11.43
2022-08-30T02:06:38.718Z,11.77
2022-08-30T02:09:07.329Z,11.70
2022-08-30T02:11:35.302Z,11.66
2022-08-30T02:14:03.821Z,11.67
2022-08-30T02:16:32.743Z,11.62
2022-08-30T02:19:00.814Z,11.42
2022-08-30T02:21:29.303Z,11.30
2022-08-30T02:23:57.367Z,11.15
2022-08-30T02:26:26.587Z,11.13
2022-08-30T02:28:54.900Z,11.35
2022-08-30T02:31:23.635Z,11.28
2022-08-30T02:33:54.887Z,11.31
2022-08-30T02:36:23.781Z,11.28
2022-08-30T02:38:52.572Z,11.26
2022-08-30T02:41:23.484Z,11.19
2022-08-30T02:43:52.593Z,11.16
2022-08-30T02:46:20.627Z,11.16
2022-08-30T02:48:48.993Z,11.03
2022-08-30T02:51:17.606Z,11.03
2022-08-30T02:53:46.265Z,10.71
2022-08-30T02:56:14.923Z,10.87
2022-08-30T02:58:45.277Z,10.74
2022-08-30T03:01:15.808Z,10.94
2022-08-30T03:03:47.199Z,10.90
2022-08-30T03:06:15.765Z,10.89
2022-08-30T03:08:43.830Z,10.88
2022-08-30T03:11:14.264Z,10.82
2022-08-30T03:13:42.431Z,10.82
2022-08-30T03:16:11.127Z,10.85
2022-08-30T03:18:40.062Z,10.77
2022-08-30T03:21:13.859Z,10.70
2022-08-30T03:23:43.377Z,10.69
2022-08-30T03:26:14.889Z,10.67
2022-08-30T03:28:43.842Z,10.32
2022-08-30T03:31:13.106Z,10.67
2022-08-30T03:33:42.119Z,10.61
2022-08-30T03:36:11.187Z,10.72
2022-08-30T03:38:40.378Z,10.74
2022-08-30T03:41:09.217Z,10.61
2022-08-30T03:43:37.742Z,10.50
2022-08-30T03:46:06.674Z,10.29
2022-08-30T03:48:34.869Z,10.71
2022-08-30T03:51:03.555Z,10.85
2022-08-30T03:53:36.052Z,10.80
2022-08-30T03:56:04.822Z,10.21
2022-08-30T03:58:33.287Z,10.90
2022-08-30T04:01:01.455Z,11.25
2022-08-30T04:03:29.724Z,11.31
2022-08-30T04:05:57.734Z,11.05
2022-08-30T04:08:26.214Z,11.33
2022-08-30T04:10:55.696Z,11.38
2022-08-30T04:13:25.387Z,11.32
2022-08-30T04:15:53.832Z,11.33
2022-08-30T04:18:22.551Z,11.34
2022-08-30T04:20:52.679Z,11.15
2022-08-30T04:23:21.655Z,11.42
2022-08-30T04:25:49.727Z,11.47
2022-08-30T04:28:17.880Z,11.00
2022-08-30T04:30:46.832Z,11.39
2022-08-30T04:33:16.398Z,11.49
2022-08-30T04:35:48.341Z,11.13
2022-08-30T04:38:18.285Z,11.65
2022-08-30T04:40:50.802Z,11.79
2022-08-30T04:43:18.857Z,11.90
2022-08-30T04:45:46.946Z,11.82
2022-08-30T04:48:16.701Z,12.09
2022-08-30T04:50:45.267Z,12.59
2022-08-30T04:53:15.267Z,12.85
2022-08-30T04:55:44.685Z,12.95
2022-08-30T04:58:12.763Z,13.31
2022-08-30T05:00:43.357Z,13.96
2022-08-30T05:03:13.101Z,14.21
2022-08-30T05:05:41.882Z,14.56
2022-08-30T05:08:15.063Z,14.89
2022-08-30T05:10:49.359Z,15.01
2022-08-30T05:13:20.506Z,15.11
2022-08-30T05:15:53.107Z,14.97
2022-08-30T05:18:23.070Z,15.43
2022-08-30T05:21:03.527Z,15.62
2022-08-30T05:23:32.325Z,15.28
2022-08-30T05:26:04.445Z,15.27
2022-08-30T05:28:32.891Z,15.13
2022-08-30T05:31:02.677Z,15.38
2022-08-30T05:33:43.684Z,15.36
2022-08-30T05:37:44.779Z,15.42
2022-08-30T05:40:14.940Z,15.52
2022-08-30T05:42:44.626Z,15.63
2022-08-30T05:45:15.200Z,15.45
2022-08-30T05:47:43.382Z,15.88
2022-08-30T05:50:11.588Z,15.97
2022-08-30T05:52:42.722Z,15.98
2022-08-30T05:55:12.311Z,16.14
2022-08-30T05:57:42.105Z,16.32
2022-08-30T06:00:17.887Z,16.56
2022-08-30T06:02:46.206Z,15.97
2022-08-30T06:05:14.690Z,16.52
2022-08-30T06:07:43.772Z,16.65
2022-08-30T06:10:12.711Z,17.01
2022-08-30T06:12:41.060Z,16.64
2022-08-30T06:15:09.956Z,17.10
2022-08-30T06:17:39.926Z,17.24
2022-08-30T06:20:09.324Z,16.95
2022-08-30T06:22:39.081Z,17.21
2022-08-30T06:25:08.076Z,17.92
2022-08-30T06:27:36.269Z,17.96
2022-08-30T06:30:08.868Z,18.42
2022-08-30T06:32:38.970Z,18.83
2022-08-30T06:35:08.531Z,18.97
2022-08-30T06:37:36.960Z,19.63
2022-08-30T06:40:06.096Z,19.26
2022-08-30T06:42:34.724Z,19.29
2022-08-30T06:45:10.650Z,19.20
2022-08-30T06:47:41.026Z,18.78
2022-08-30T06:50:11.870Z,18.51
2022-08-30T06:52:42.638Z,18.57
2022-08-30T06:55:14.201Z,18.59
2022-08-30T06:57:42.584Z,19.01
2022-08-30T07:00:17.149Z,19.20
2022-08-30T07:02:45.348Z,19.16
2022-08-30T07:05:18.148Z,19.38
2022-08-30T07:07:47.148Z,19.39
2022-08-30T07:10:16.906Z,20.07
2022-08-30T07:12:45.846Z,20.32
2022-08-30T07:15:14.732Z,20.39
2022-08-30T07:18:01.359Z,21.06
2022-08-30T07:20:40.282Z,21.17
2022-08-30T07:23:10.734Z,20.82
2022-08-30T07:25:41.839Z,20.63
2022-08-30T07:28:11.569Z,20.61
2022-08-30T07:30:42.252Z,21.05
2022-08-30T07:33:10.762Z,21.30
2022-08-30T07:35:38.909Z,21.48
2022-08-30T07:38:07.479Z,21.60
2022-08-30T07:40:37.997Z,21.66
2022-08-30T07:43:07.075Z,21.17
2022-08-30T07:45:36.880Z,20.59
2022-08-30T07:48:06.078Z,20.74
2022-08-30T07:50:34.979Z,21.03
2022-08-30T07:53:05.715Z,21.21
2022-08-30T07:55:36.081Z,21.29
2022-08-30T07:58:04.576Z,21.29
2022-08-30T08:00:32.765Z,20.91
2022-08-30T08:03:07.668Z,21.09
2022-08-30T08:05:45.455Z,20.85
2022-08-30T08:08:14.780Z,20.66
2022-08-30T08:10:43.532Z,21.02
2022-08-30T08:13:12.007Z,20.96
2022-08-30T08:15:40.851Z,20.98
2022-08-30T08:18:09.076Z,21.09
2022-08-30T08:20:37.845Z,21.49
2022-08-30T08:23:08.143Z,21.10
2022-08-30T08:25:41.106Z,21.14
2022-08-30T08:28:09.792Z,20.94
2022-08-30T08:30:38.878Z,20.69
2022-08-30T08:33:07.067Z,20.75
2022-08-30T08:35:35.760Z,21.17
2022-08-30T08:38:05.735Z,21.46
2022-08-30T08:41:01.294Z,21.43
2022-08-30T08:43:33.901Z,21.28
2022-08-30T08:46:27.145Z,22.12
2022-08-30T08:49:02.126Z,22.33
2022-08-30T08:51:57.691Z,22.12
2022-08-30T08:54:50.218Z,22.86
2022-08-30T08:57:22.716Z,22.37
2022-08-30T08:59:55.208Z,21.58
2022-08-30T09:02:30.654Z,21.45
2022-08-30T09:05:01.947Z,22.40
2022-08-30T09:07:32.674Z,22.80
2022-08-30T09:10:00.885Z,22.09
2022-08-30T09:12:29.631Z,22.06
2022-08-30T09:15:20.358Z,22.63
2022-08-30T09:18:02.577Z,23.41
2022-08-30T09:20:46.037Z,23.27
2022-08-30T09:23:17.416Z,23.05
2022-08-30T09:26:07.180Z,22.65
2022-08-30T09:28:51.480Z,22.58
2022-08-30T09:31:32.374Z,23.02
2022-08-30T09:34:09.899Z,22.94
2022-08-30T09:36:51.784Z,23.98
2022-08-30T09:39:41.532Z,23.59
2022-08-30T09:42:25.637Z,22.82
2022-08-30T09:45:10.722Z,22.79
2022-08-30T09:47:44.175Z,23.04
2022-08-30T09:50:24.276Z,22.64
2022-08-30T09:53:23.286Z,22.42
2022-08-30T09:56:27.495Z,22.73
2022-08-30T09:59:12.374Z,22.79
2022-08-30T10:01:48.793Z,22.47
2022-08-30T10:04:35.728Z,22.07
2022-08-30T10:07:16.224Z,23.06
2022-08-30T10:10:26.493Z,23.01
2022-08-30T10:13:22.897Z,22.97
2022-08-30T10:16:09.711Z,23.37
2022-08-30T10:19:21.706Z,23.52
2022-08-30T10:22:15.474Z,23.38
2022-08-30T10:25:01.704Z,23.50
2022-08-30T10:27:39.000Z,23.08
2022-08-30T10:33:15.393Z,23.54
2022-08-30T10:35:57.649Z,23.14
2022-08-30T10:38:35.347Z,24.04
2022-08-30T10:41:28.049Z,23.57
2022-08-30T10:44:32.562Z,24.04
2022-08-30T10:47:12.322Z,23.88
2022-08-30T10:49:49.871Z,23.82
2022-08-30T10:52:56.963Z,24.25
2022-08-30T10:55:34.552Z,24.31
2022-08-30T10:58:07.100Z,24.42
2022-08-30T11:01:29.481Z,25.23
2022-08-30T11:04:16.706Z,25.06
2022-08-30T11:07:12.780Z,25.24
2022-08-30T11:10:15.086Z,24.21
2022-08-30T11:13:05.946Z,24.54
2022-08-30T11:19:24.185Z,23.69
2022-08-30T11:22:16.425Z,22.73
2022-08-30T11:25:38.814Z,22.83
2022-08-30T11:28:09.196Z,22.82
2022-08-30T11:30:43.852Z,23.37
2022-08-30T11:33:12.022Z,24.07
2022-08-30T11:35:48.435Z,23.50
2022-08-30T11:38:25.665Z,24.04
2022-08-30T11:40:56.988Z,24.34
2022-08-30T11:43:39.595Z,23.80
2022-08-30T11:46:16.500Z,24.06
2022-08-30T11:49:23.419Z,24.02
2022-08-30T11:52:26.379Z,23.39
2022-08-30T11:55:26.107Z,24.17
2022-08-30T11:58:19.954Z,24.01
2022-08-30T12:01:16.158Z,25.17
2022-08-30T12:04:01.731Z,25.88
2022-08-30T12:06:45.095Z,26.18
2022-08-30T12:09:37.983Z,25.31
2022-08-30T12:12:30.465Z,25.24
2022-08-30T12:14:59.982Z,25.00
2022-08-30T12:18:03.773Z,24.63
2022-08-30T12:20:45.611Z,24.72
2022-08-30T12:23:44.551Z,24.73
2022-08-30T12:26:30.912Z,24.59
2022-08-30T12:29:10.992Z,24.30
2022-08-30T12:32:00.769Z,24.18
2022-08-30T12:34:37.178Z,23.94
2022-08-30T12:37:36.757Z,23.82
2022-08-30T12:40:24.162Z,24.39
2022-08-30T12:43:01.543Z,24.50
2022-08-30T12:45:45.144Z,24.02
2022-08-30T12:48:21.884Z,23.35
2022-08-30T12:51:01.484Z,23.78
2022-08-30T12:53:46.056Z,23.49
2022-08-30T12:56:35.119Z,23.35
2022-08-30T12:59:06.644Z,23.36
2022-08-30T13:01:37.188Z,23.24
2022-08-30T13:04:28.107Z,23.59
2022-08-30T13:07:00.664Z,23.46
2022-08-30T13:09:32.550Z,23.00
2022-08-30T13:12:10.870Z,23.73
2022-08-30T13:14:42.444Z,22.97
2022-08-30T13:17:27.665Z,24.05
2022-08-30T13:20:08.505Z,24.01
2022-08-30T13:22:40.321Z,24.69
2022-08-30T13:25:12.166Z,24.10
2022-08-30T13:27:40.666Z,23.49
2022-08-30T13:30:16.642Z,24.26
2022-08-30T13:32:45.154Z,23.72
2022-08-30T13:35:13.555Z,23.38
2022-08-30T13:37:49.512Z,23.62
2022-08-30T13:40:21.722Z,24.07
2022-08-30T13:42:52.067Z,24.80
2022-08-30T13:48:11.002Z,24.17
2022-08-30T13:50:43.556Z,23.96
2022-08-30T13:53:52.110Z,24.90
2022-08-30T13:56:07.218Z,24.23
2022-08-30T13:58:35.429Z,25.31
2022-08-30T14:01:03.795Z,26.12
2022-08-30T14:03:32.048Z,26.64
2022-08-30T14:06:29.325Z,27.05
2022-08-30T14:08:52.088Z,24.85
2022-08-30T14:11:29.300Z,24.47
2022-08-30T14:14:14.934Z,24.83
2022-08-30T14:16:46.843Z,25.49
2022-08-30T14:19:16.453Z,24.78
2022-08-30T14:21:48.759Z,24.19
2022-08-30T14:24:20.039Z,23.54
2022-08-30T14:26:51.637Z,23.35
2022-08-30T14:29:25.134Z,23.59
2022-08-30T14:31:53.493Z,22.89
2022-08-30T14:34:23.205Z,22.48
2022-08-30T14:36:51.528Z,22.33
2022-08-30T14:39:21.616Z,22.32
2022-08-30T14:41:55.403Z,22.46
2022-08-30T14:44:25.684Z,22.54
2022-08-30T14:46:55.358Z,22.17
2022-08-30T14:49:24.582Z,22.30
2022-08-30T14:51:53.493Z,22.49
2022-08-30T14:54:26.710Z,22.54
2022-08-30T14:56:55.984Z,21.88
2022-08-30T14:59:26.119Z,22.07
2022-08-30T15:01:55.537Z,22.35
2022-08-30T15:04:23.951Z,22.24
2022-08-30T15:06:53.778Z,21.17
2022-08-30T15:09:24.769Z,21.72
2022-08-30T15:12:01.434Z,21.94
2022-08-30T15:14:32.525Z,21.61
2022-08-30T15:17:02.902Z,21.57
2022-08-30T15:19:32.630Z,21.66
2022-08-30T15:22:05.550Z,21.57
2022-08-30T15:24:34.291Z,21.52
2022-08-30T15:27:03.385Z,21.38
2022-08-30T15:29:32.078Z,21.71
2022-08-30T15:32:02.199Z,21.15
2022-08-30T15:34:31.946Z,21.74
2022-08-30T15:37:00.263Z,21.50
2022-08-30T15:39:29.205Z,21.63
2022-08-30T15:42:01.300Z,21.84
2022-08-30T15:44:34.294Z,21.85
2022-08-30T15:47:04.076Z,21.86
2022-08-30T15:49:32.652Z,21.46
2022-08-30T15:52:04.079Z,21.48
2022-08-30T15:54:32.614Z,20.84
2022-08-30T15:57:01.416Z,20.58
2022-08-30T15:59:31.210Z,20.82
2022-08-30T16:01:59.588Z,20.35
2022-08-30T16:04:27.956Z,20.91
2022-08-30T16:06:56.281Z,21.07
2022-08-30T16:09:29.808Z,20.82
2022-08-30T16:12:02.656Z,20.78
2022-08-30T16:14:34.396Z,20.83
2022-08-30T16:17:02.728Z,20.83
2022-08-30T16:19:30.879Z,20.49
2022-08-30T16:22:00.344Z,20.51
2022-08-30T16:24:28.429Z,20.45
2022-08-30T16:26:56.646Z,20.67
2022-08-30T16:29:24.915Z,20.41
2022-08-30T16:31:53.488Z,20.42
2022-08-30T16:34:22.043Z,20.55
2022-08-30T16:36:50.430Z,20.30
2022-08-30T16:39:18.679Z,20.08
2022-08-30T16:41:46.788Z,19.90
2022-08-30T16:44:17.929Z,19.68
2022-08-30T16:46:53.456Z,19.65
2022-08-30T16:49:25.346Z,19.55
2022-08-30T16:51:54.388Z,19.29
2022-08-30T16:54:23.199Z,19.46
2022-08-30T16:56:52.118Z,19.34
2022-08-30T16:59:20.393Z,19.11
2022-08-30T17:01:49.237Z,19.07
2022-08-30T17:04:19.778Z,19.24
2022-08-30T17:06:51.145Z,18.94
2022-08-30T17:09:20.314Z,19.09
2022-08-30T17:11:48.894Z,18.96
2022-08-30T17:14:27.528Z,19.14
2022-08-30T17:17:00.434Z,19.14
2022-08-30T17:19:29.628Z,19.19
2022-08-30T17:21:58.438Z,19.16
2022-08-30T17:24:27.949Z,18.96
2022-08-30T17:26:58.179Z,19.08
2022-08-30T17:29:27.431Z,19.06
2022-08-30T17:31:56.909Z,18.76
2022-08-30T17:34:27.930Z,19.00
2022-08-30T17:36:58.509Z,19.01
2022-08-30T17:39:29.217Z,18.96
2022-08-30T17:41:58.617Z,18.95
2022-08-30T17:44:31.095Z,18.98
2022-08-30T17:47:00.799Z,19.01
2022-08-30T17:49:31.298Z,18.97
2022-08-30T17:52:01.369Z,18.85
2022-08-30T17:54:32.048Z,18.84
2022-08-30T17:57:00.760Z,18.80
2022-08-30T17:59:31.665Z,18.52
2022-08-30T18:02:02.193Z,18.59
2022-08-30T18:04:31.355Z,18.82
2022-08-30T18:06:59.709Z,18.83
2022-08-30T18:09:33.176Z,18.73
2022-08-30T18:12:02.683Z,18.80
2022-08-30T18:14:31.191Z,18.75
2022-08-30T18:16:59.761Z,18.43
2022-08-30T18:19:29.789Z,18.78
2022-08-30T18:21:59.036Z,18.68
2022-08-30T18:24:27.514Z,18.59
2022-08-30T18:26:56.474Z,18.69
2022-08-30T18:29:29.150Z,18.67
2022-08-30T18:32:04.612Z,18.53
2022-08-30T18:34:33.501Z,18.64
2022-08-30T18:37:02.017Z,18.57
2022-08-30T18:39:34.297Z,18.28
2022-08-30T18:42:06.577Z,18.58
2022-08-30T18:44:36.104Z,18.50
2022-08-30T18:47:05.869Z,18.25
2022-08-30T18:49:36.975Z,18.28
2022-08-30T18:52:08.985Z,18.28
2022-08-30T18:54:52.446Z,18.23
2022-08-30T18:57:22.357Z,18.45
2022-08-30T18:59:51.191Z,18.49
2022-08-30T19:02:20.290Z,18.48
2022-08-30T19:04:49.578Z,18.40
2022-08-30T19:07:19.988Z,18.24
2022-08-30T19:09:49.103Z,18.24
2022-08-30T19:12:19.735Z,17.91
2022-08-30T19:14:49.544Z,17.32
2022-08-30T19:17:18.291Z,17.92
2022-08-30T19:19:49.064Z,17.89
2022-08-30T19:22:22.380Z,17.79
2022-08-30T19:24:52.763Z,17.72
2022-08-30T19:27:37.099Z,17.65
2022-08-30T19:30:10.914Z,17.34
2022-08-30T19:32:40.027Z,17.32
2022-08-30T19:35:11.114Z,17.47
2022-08-30T19:37:40.802Z,17.36
2022-08-30T19:40:16.908Z,17.30
2022-08-30T19:45:35.408Z,16.99
2022-08-30T19:48:04.115Z,16.66
2022-08-30T19:50:32.407Z,17.05
2022-08-30T19:53:00.654Z,16.93
2022-08-30T19:55:31.565Z,17.00
2022-08-30T19:57:59.995Z,16.93
2022-08-30T20:00:31.196Z,16.86
2022-08-30T20:05:49.264Z,16.71
2022-08-30T20:08:17.925Z,16.64
2022-08-30T20:10:47.502Z,16.61
2022-08-30T20:13:16.567Z,16.58
2022-08-30T20:15:45.071Z,16.52
2022-08-30T20:18:14.853Z,16.46
2022-08-30T20:20:49.391Z,16.35
2022-08-30T20:23:21.760Z,16.14
2022-08-30T20:25:54.784Z,16.38
2022-08-30T20:28:26.044Z,16.30
2022-08-30T20:30:56.580Z,16.30
2022-08-30T20:33:26.409Z,16.28
2022-08-30T20:35:55.540Z,16.22
2022-08-30T20:38:25.603Z,15.96
2022-08-30T20:40:58.886Z,16.10
2022-08-30T20:43:31.747Z,15.97
2022-08-30T20:46:00.262Z,15.96
2022-08-30T20:48:29.410Z,15.89
2022-08-30T20:50:58.198Z,15.85
2022-08-30T20:53:26.311Z,15.40
2022-08-30T20:55:55.878Z,15.80
2022-08-30T20:58:24.033Z,15.79
2022-08-30T21:00:55.716Z,15.81
2022-08-30T21:03:27.571Z,15.79
2022-08-30T21:05:57.265Z,15.84
2022-08-30T21:08:25.502Z,15.54
2022-08-30T21:10:54.894Z,15.84
2022-08-30T21:13:23.519Z,15.80
2022-08-30T21:16:00.324Z,15.61
2022-08-30T21:18:34.290Z,15.47
2022-08-30T21:21:21.702Z,15.77
2022-08-30T21:23:51.387Z,15.74
2022-08-30T21:26:20.406Z,15.50
2022-08-30T21:28:54.556Z,15.45
2022-08-30T21:31:25.696Z,15.71
2022-08-30T21:33:56.360Z,15.43
2022-08-30T21:36:45.683Z,15.66
2022-08-30T21:39:21.421Z,15.74
2022-08-30T21:41:54.567Z,15.74
2022-08-30T21:44:26.871Z,15.57
2022-08-30T21:46:55.531Z,15.64
2022-08-30T21:49:24.758Z,15.73
2022-08-30T21:51:55.548Z,15.73
2022-08-30T21:54:25.473Z,15.71
2022-08-30T21:57:02.247Z,15.63
2022-08-30T21:59:34.515Z,15.73
2022-08-30T22:02:02.808Z,15.71
2022-08-30T22:04:30.929Z,15.69
2022-08-30T22:07:00.413Z,15.40
2022-08-30T22:09:28.906Z,15.75
2022-08-30T22:11:56.990Z,15.73
2022-08-30T22:14:26.859Z,15.79
2022-08-30T22:16:55.341Z,15.79
2022-08-30T22:19:23.732Z,15.51
2022-08-30T22:22:00.648Z,15.60
2022-08-30T22:24:32.688Z,15.89
2022-08-30T22:27:02.496Z,15.75
2022-08-30T22:29:30.834Z,15.89
2022-08-30T22:32:00.181Z,15.92
2022-08-30T22:34:28.808Z,15.98
2022-08-30T22:36:57.146Z,15.98
2022-08-30T22:39:25.941Z,15.94
2022-08-30T22:41:54.483Z,16.02
2022-08-30T22:44:22.635Z,15.78
2022-08-30T22:46:51.068Z,16.07
2022-08-30T22:49:19.176Z,16.07
2022-08-30T22:51:47.345Z,15.81
2022-08-30T22:54:16.233Z,15.80
2022-08-30T22:56:44.645Z,16.09
2022-08-30T22:59:12.707Z,15.85
2022-08-30T23:01:45.687Z,16.09
2022-08-30T23:04:13.866Z,16.12
2022-08-30T23:06:49.614Z,16.07
2022-08-30T23:09:19.457Z,15.68
2022-08-30T23:11:47.594Z,16.12
2022-08-30T23:14:15.801Z,16.19
2022-08-30T23:16:44.337Z,16.13
2022-08-30T23:19:12.987Z,16.19
2022-08-30T23:21:41.046Z,16.21
2022-08-30T23:24:29.055Z,16.22
2022-08-30T23:27:15.615Z,16.06
2022-08-30T23:30:02.328Z,16.33
2022-08-30T23:32:48.872Z,16.32
2022-08-30T23:35:35.673Z,16.20
2022-08-30T23:38:24.104Z,16.33
2022-08-30T23:41:10.805Z,16.39
2022-08-30T23:43:57.691Z,16.18
2022-08-30T23:46:45.491Z,16.46
2022-08-30T23:49:32.123Z,16.15
2022-08-30T23:52:19.040Z,16.45
2022-08-30T23:55:06.199Z,16.21
2022-08-30T23:57:52.820Z,16.39
